sensor_id;sensor_type;location;lat;lon;timestamp;temperature;humidity
1786;DHT22;890;48.158;11.540;2022-11-30T00:00:01;4.70;98.00
1786;DHT22;890;48.158;11.540;2022-11-30T00:02:28;4.70;98.50
1786;DHT22;890;48.158;11.540;2022-11-30T00:04:54;4.70;98.10
1786;DHT22;890;48.158;11.540;2022-11-30T00:07:19;4.80;98.00
1786;DHT22;890;48.158;11.540;2022-11-30T00:09:45;4.70;97.90
1786;DHT22;890;48.158;11.540;2022-11-30T00:12:11;4.70;97.90
1786;DHT22;890;48.158;11.540;2022-11-30T00:14:36;4.70;97.90
1786;DHT22;890;48.158;11.540;2022-11-30T00:17:02;4.60;97.70
1786;DHT22;890;48.158;11.540;2022-11-30T00:19:27;4.60;98.00
1786;DHT22;890;48.158;11.540;2022-11-30T00:21:53;4.70;98.10
1786;DHT22;890;48.158;11.540;2022-11-30T00:24:18;4.60;97.90
1786;DHT22;890;48.158;11.540;2022-11-30T00:26:44;4.60;98.00
1786;DHT22;890;48.158;11.540;2022-11-30T00:29:09;4.60;98.10
1786;DHT22;890;48.158;11.540;2022-11-30T00:31:36;4.60;98.10
1786;DHT22;890;48.158;11.540;2022-11-30T00:34:01;4.60;98.00
1786;DHT22;890;48.158;11.540;2022-11-30T00:36:27;4.60;98.00
1786;DHT22;890;48.158;11.540;2022-11-30T00:38:52;4.60;97.80
1786;DHT22;890;48.158;11.540;2022-11-30T00:41:18;4.00;97.60
1786;DHT22;890;48.158;11.540;2022-11-30T00:43:44;4.60;97.90
1786;DHT22;890;48.158;11.540;2022-11-30T00:46:10;4.60;97.80
1786;DHT22;890;48.158;11.540;2022-11-30T00:48:37;4.60;97.70
1786;DHT22;890;48.158;11.540;2022-11-30T00:51:04;4.60;97.80
1786;DHT22;890;48.158;11.540;2022-11-30T00:53:30;4.70;97.80
1786;DHT22;890;48.158;11.540;2022-11-30T00:55:55;4.70;97.70
1786;DHT22;890;48.158;11.540;2022-11-30T00:58:21;4.80;97.60
1786;DHT22;890;48.158;11.540;2022-11-30T01:00:47;4.80;97.50
1786;DHT22;890;48.158;11.540;2022-11-30T01:03:13;4.80;97.40
1786;DHT22;890;48.158;11.540;2022-11-30T01:05:39;4.80;97.50
1786;DHT22;890;48.158;11.540;2022-11-30T01:08:06;4.80;97.50
1786;DHT22;890;48.158;11.540;2022-11-30T01:10:33;4.90;97.40
1786;DHT22;890;48.158;11.540;2022-11-30T01:12:59;4.80;97.20
1786;DHT22;890;48.158;11.540;2022-11-30T01:15:25;4.80;97.20
1786;DHT22;890;48.158;11.540;2022-11-30T01:17:51;4.80;97.20
1786;DHT22;890;48.158;11.540;2022-11-30T01:20:16;4.80;97.20
1786;DHT22;890;48.158;11.540;2022-11-30T01:22:42;4.80;97.20
1786;DHT22;890;48.158;11.540;2022-11-30T01:25:08;4.80;97.10
1786;DHT22;890;48.158;11.540;2022-11-30T01:27:34;4.80;97.20
1786;DHT22;890;48.158;11.540;2022-11-30T01:29:59;4.80;97.30
1786;DHT22;890;48.158;11.540;2022-11-30T01:32:25;4.90;97.20
1786;DHT22;890;48.158;11.540;2022-11-30T01:34:51;4.80;97.00
1786;DHT22;890;48.158;11.540;2022-11-30T01:37:17;4.70;96.80
1786;DHT22;890;48.158;11.540;2022-11-30T01:39:42;4.70;97.00
1786;DHT22;890;48.158;11.540;2022-11-30T01:42:16;4.80;97.00
1786;DHT22;890;48.158;11.540;2022-11-30T01:47:15;4.60;96.80
1786;DHT22;890;48.158;11.540;2022-11-30T01:49:48;4.70;96.80
1786;DHT22;890;48.158;11.540;2022-11-30T01:52:24;4.70;96.80
1786;DHT22;890;48.158;11.540;2022-11-30T01:55:05;4.70;96.80
1786;DHT22;890;48.158;11.540;2022-11-30T01:57:42;4.70;96.70
1786;DHT22;890;48.158;11.540;2022-11-30T02:00:12;4.50;96.60
1786;DHT22;890;48.158;11.540;2022-11-30T02:05:29;4.60;96.80
1786;DHT22;890;48.158;11.540;2022-11-30T02:07:55;4.70;96.90
1786;DHT22;890;48.158;11.540;2022-11-30T02:10:26;4.70;96.80
1786;DHT22;890;48.158;11.540;2022-11-30T02:16:19;4.60;96.80
1786;DHT22;890;48.158;11.540;2022-11-30T02:32:34;4.80;96.90
1786;DHT22;890;48.158;11.540;2022-11-30T02:35:02;4.90;96.80
1786;DHT22;890;48.158;11.540;2022-11-30T02:37:29;5.00;96.50
1786;DHT22;890;48.158;11.540;2022-11-30T02:39:57;4.90;96.40
1786;DHT22;890;48.158;11.540;2022-11-30T02:42:22;4.90;96.40
1786;DHT22;890;48.158;11.540;2022-11-30T02:44:50;4.90;96.40
1786;DHT22;890;48.158;11.540;2022-11-30T02:47:19;4.90;96.30
1786;DHT22;890;48.158;11.540;2022-11-30T02:52:13;4.90;96.40
1786;DHT22;890;48.158;11.540;2022-11-30T02:54:39;4.90;96.70
1786;DHT22;890;48.158;11.540;2022-11-30T02:57:05;4.90;96.40
1786;DHT22;890;48.158;11.540;2022-11-30T02:59:31;4.90;96.10
1786;DHT22;890;48.158;11.540;2022-11-30T03:01:56;4.80;96.40
1786;DHT22;890;48.158;11.540;2022-11-30T03:04:22;4.80;96.50
1786;DHT22;890;48.158;11.540;2022-11-30T03:06:48;4.80;96.20
1786;DHT22;890;48.158;11.540;2022-11-30T03:09:13;4.80;96.20
1786;DHT22;890;48.158;11.540;2022-11-30T03:11:39;4.70;96.10
1786;DHT22;890;48.158;11.540;2022-11-30T03:14:05;4.70;96.20
1786;DHT22;890;48.158;11.540;2022-11-30T03:16:30;4.70;96.30
1786;DHT22;890;48.158;11.540;2022-11-30T03:18:57;4.70;96.30
1786;DHT22;890;48.158;11.540;2022-11-30T03:21:23;4.70;96.30
1786;DHT22;890;48.158;11.540;2022-11-30T03:23:49;4.70;96.20
1786;DHT22;890;48.158;11.540;2022-11-30T03:26:14;4.60;96.20
1786;DHT22;890;48.158;11.540;2022-11-30T03:28:40;4.60;96.30
1786;DHT22;890;48.158;11.540;2022-11-30T03:31:05;4.70;96.20
1786;DHT22;890;48.158;11.540;2022-11-30T03:33:34;4.60;96.00
1786;DHT22;890;48.158;11.540;2022-11-30T03:36:06;4.60;96.10
1786;DHT22;890;48.158;11.540;2022-11-30T03:38:32;4.60;96.10
1786;DHT22;890;48.158;11.540;2022-11-30T03:41:10;4.70;96.10
1786;DHT22;890;48.158;11.540;2022-11-30T03:43:36;4.70;95.90
1786;DHT22;890;48.158;11.540;2022-11-30T03:46:02;4.70;95.70
1786;DHT22;890;48.158;11.540;2022-11-30T03:48:28;4.60;95.50
1786;DHT22;890;48.158;11.540;2022-11-30T03:50:53;4.60;95.60
1786;DHT22;890;48.158;11.540;2022-11-30T03:53:21;4.60;95.80
1786;DHT22;890;48.158;11.540;2022-11-30T03:55:54;4.60;95.80
1786;DHT22;890;48.158;11.540;2022-11-30T03:58:21;4.70;95.70
1786;DHT22;890;48.158;11.540;2022-11-30T04:00:47;4.80;95.60
1786;DHT22;890;48.158;11.540;2022-11-30T04:03:13;4.90;95.30
1786;DHT22;890;48.158;11.540;2022-11-30T04:05:38;4.90;95.40
1786;DHT22;890;48.158;11.540;2022-11-30T04:08:04;4.80;95.20
1786;DHT22;890;48.158;11.540;2022-11-30T04:10:29;4.80;95.10
1786;DHT22;890;48.158;11.540;2022-11-30T04:12:55;4.80;95.00
1786;DHT22;890;48.158;11.540;2022-11-30T04:15:20;4.80;95.00
1786;DHT22;890;48.158;11.540;2022-11-30T04:17:46;4.80;94.90
1786;DHT22;890;48.158;11.540;2022-11-30T04:20:12;4.80;94.80
1786;DHT22;890;48.158;11.540;2022-11-30T04:22:37;4.90;94.80
1786;DHT22;890;48.158;11.540;2022-11-30T04:25:03;4.90;94.70
1786;DHT22;890;48.158;11.540;2022-11-30T04:27:29;4.80;94.50
1786;DHT22;890;48.158;11.540;2022-11-30T04:29:54;4.90;94.60
1786;DHT22;890;48.158;11.540;2022-11-30T04:32:20;4.90;94.50
1786;DHT22;890;48.158;11.540;2022-11-30T04:34:45;4.90;94.60
1786;DHT22;890;48.158;11.540;2022-11-30T04:37:11;4.90;94.50
1786;DHT22;890;48.158;11.540;2022-11-30T04:39:37;5.00;94.50
1786;DHT22;890;48.158;11.540;2022-11-30T04:42:02;5.00;94.30
1786;DHT22;890;48.158;11.540;2022-11-30T04:44:28;5.10;94.20
1786;DHT22;890;48.158;11.540;2022-11-30T04:46:53;5.00;94.00
1786;DHT22;890;48.158;11.540;2022-11-30T04:49:19;5.00;94.00
1786;DHT22;890;48.158;11.540;2022-11-30T04:51:44;5.00;94.10
1786;DHT22;890;48.158;11.540;2022-11-30T04:54:10;5.00;94.00
1786;DHT22;890;48.158;11.540;2022-11-30T04:56:35;4.90;93.90
1786;DHT22;890;48.158;11.540;2022-11-30T04:59:01;4.90;93.90
1786;DHT22;890;48.158;11.540;2022-11-30T05:01:27;4.90;94.30
1786;DHT22;890;48.158;11.540;2022-11-30T05:03:52;4.90;94.10
1786;DHT22;890;48.158;11.540;2022-11-30T05:06:18;4.90;94.10
1786;DHT22;890;48.158;11.540;2022-11-30T05:08:44;4.90;94.10
1786;DHT22;890;48.158;11.540;2022-11-30T05:11:09;5.00;94.20
1786;DHT22;890;48.158;11.540;2022-11-30T05:13:35;5.10;94.20
1786;DHT22;890;48.158;11.540;2022-11-30T05:16:00;5.10;94.20
1786;DHT22;890;48.158;11.540;2022-11-30T05:18:26;5.10;94.00
1786;DHT22;890;48.158;11.540;2022-11-30T05:20:52;5.10;93.90
1786;DHT22;890;48.158;11.540;2022-11-30T05:23:19;5.10;93.80
1786;DHT22;890;48.158;11.540;2022-11-30T05:25:45;5.10;93.90
1786;DHT22;890;48.158;11.540;2022-11-30T05:28:11;5.10;93.90
1786;DHT22;890;48.158;11.540;2022-11-30T05:30:39;5.10;93.80
1786;DHT22;890;48.158;11.540;2022-11-30T05:33:05;5.00;93.80
1786;DHT22;890;48.158;11.540;2022-11-30T05:35:30;5.00;93.60
1786;DHT22;890;48.158;11.540;2022-11-30T05:37:56;5.00;93.60
1786;DHT22;890;48.158;11.540;2022-11-30T05:40:21;5.10;93.60
1786;DHT22;890;48.158;11.540;2022-11-30T05:42:47;5.10;93.50
1786;DHT22;890;48.158;11.540;2022-11-30T05:45:18;5.10;93.40
1786;DHT22;890;48.158;11.540;2022-11-30T05:47:44;5.10;93.40
1786;DHT22;890;48.158;11.540;2022-11-30T05:50:10;5.10;93.40
1786;DHT22;890;48.158;11.540;2022-11-30T05:52:35;5.10;93.40
1786;DHT22;890;48.158;11.540;2022-11-30T05:55:01;5.00;93.20
1786;DHT22;890;48.158;11.540;2022-11-30T05:57:26;5.00;93.10
1786;DHT22;890;48.158;11.540;2022-11-30T05:59:52;5.00;93.10
1786;DHT22;890;48.158;11.540;2022-11-30T06:02:17;5.10;93.10
1786;DHT22;890;48.158;11.540;2022-11-30T06:04:43;5.10;93.10
1786;DHT22;890;48.158;11.540;2022-11-30T06:07:09;5.10;93.00
1786;DHT22;890;48.158;11.540;2022-11-30T06:09:37;5.20;93.10
1786;DHT22;890;48.158;11.540;2022-11-30T06:12:03;5.20;93.00
1786;DHT22;890;48.158;11.540;2022-11-30T06:14:28;5.20;92.80
1786;DHT22;890;48.158;11.540;2022-11-30T06:16:54;5.20;92.70
1786;DHT22;890;48.158;11.540;2022-11-30T06:19:19;5.20;92.50
1786;DHT22;890;48.158;11.540;2022-11-30T06:21:45;5.20;92.60
1786;DHT22;890;48.158;11.540;2022-11-30T06:24:10;5.20;92.50
1786;DHT22;890;48.158;11.540;2022-11-30T06:26:36;5.10;92.30
1786;DHT22;890;48.158;11.540;2022-11-30T06:29:02;5.10;92.30
1786;DHT22;890;48.158;11.540;2022-11-30T06:31:29;5.10;92.40
1786;DHT22;890;48.158;11.540;2022-11-30T06:33:58;5.10;92.40
1786;DHT22;890;48.158;11.540;2022-11-30T06:36:24;5.10;92.30
1786;DHT22;890;48.158;11.540;2022-11-30T06:38:50;5.10;92.20
1786;DHT22;890;48.158;11.540;2022-11-30T06:41:15;5.10;92.20
1786;DHT22;890;48.158;11.540;2022-11-30T06:43:41;5.10;92.00
1786;DHT22;890;48.158;11.540;2022-11-30T06:46:07;5.20;92.10
1786;DHT22;890;48.158;11.540;2022-11-30T06:48:33;5.20;92.20
1786;DHT22;890;48.158;11.540;2022-11-30T06:50:59;5.10;92.10
1786;DHT22;890;48.158;11.540;2022-11-30T06:53:25;5.10;92.20
1786;DHT22;890;48.158;11.540;2022-11-30T06:55:51;5.00;92.20
1786;DHT22;890;48.158;11.540;2022-11-30T06:58:17;5.00;92.20
1786;DHT22;890;48.158;11.540;2022-11-30T07:00:43;5.00;92.20
1786;DHT22;890;48.158;11.540;2022-11-30T07:03:10;5.00;92.20
1786;DHT22;890;48.158;11.540;2022-11-30T07:05:41;5.00;92.20
1786;DHT22;890;48.158;11.540;2022-11-30T07:08:08;5.00;92.30
1786;DHT22;890;48.158;11.540;2022-11-30T07:10:38;5.10;92.30
1786;DHT22;890;48.158;11.540;2022-11-30T07:13:04;5.00;92.10
1786;DHT22;890;48.158;11.540;2022-11-30T07:15:29;5.10;92.10
1786;DHT22;890;48.158;11.540;2022-11-30T07:17:55;5.10;92.10
1786;DHT22;890;48.158;11.540;2022-11-30T07:20:20;5.10;92.00
1786;DHT22;890;48.158;11.540;2022-11-30T07:22:46;5.10;92.00
1786;DHT22;890;48.158;11.540;2022-11-30T07:25:11;5.10;92.10
1786;DHT22;890;48.158;11.540;2022-11-30T07:27:55;5.10;92.00
1786;DHT22;890;48.158;11.540;2022-11-30T07:30:21;5.10;91.90
1786;DHT22;890;48.158;11.540;2022-11-30T07:32:46;5.00;91.80
1786;DHT22;890;48.158;11.540;2022-11-30T07:35:12;5.00;91.90
1786;DHT22;890;48.158;11.540;2022-11-30T07:37:38;5.10;92.00
1786;DHT22;890;48.158;11.540;2022-11-30T07:40:04;5.10;92.00
1786;DHT22;890;48.158;11.540;2022-11-30T07:42:30;5.10;92.00
1786;DHT22;890;48.158;11.540;2022-11-30T07:44:56;5.10;92.00
1786;DHT22;890;48.158;11.540;2022-11-30T07:47:21;5.20;92.10
1786;DHT22;890;48.158;11.540;2022-11-30T07:49:47;5.30;92.30
1786;DHT22;890;48.158;11.540;2022-11-30T07:52:12;5.30;92.00
1786;DHT22;890;48.158;11.540;2022-11-30T07:54:38;5.30;91.90
1786;DHT22;890;48.158;11.540;2022-11-30T07:57:03;5.40;92.00
1786;DHT22;890;48.158;11.540;2022-11-30T07:59:29;5.40;91.90
1786;DHT22;890;48.158;11.540;2022-11-30T08:01:54;5.50;91.90
1786;DHT22;890;48.158;11.540;2022-11-30T08:04:20;5.50;91.60
1786;DHT22;890;48.158;11.540;2022-11-30T08:06:46;5.50;91.70
1786;DHT22;890;48.158;11.540;2022-11-30T08:09:11;5.50;91.70
1786;DHT22;890;48.158;11.540;2022-11-30T08:11:37;5.50;91.60
1786;DHT22;890;48.158;11.540;2022-11-30T08:14:03;5.50;91.50
1786;DHT22;890;48.158;11.540;2022-11-30T08:16:33;5.50;91.60
1786;DHT22;890;48.158;11.540;2022-11-30T08:18:58;5.50;91.60
1786;DHT22;890;48.158;11.540;2022-11-30T08:21:24;5.60;91.60
1786;DHT22;890;48.158;11.540;2022-11-30T08:23:55;5.60;91.30
1786;DHT22;890;48.158;11.540;2022-11-30T08:26:24;5.60;91.40
1786;DHT22;890;48.158;11.540;2022-11-30T08:28:53;5.70;91.40
1786;DHT22;890;48.158;11.540;2022-11-30T08:31:24;5.70;91.20
1786;DHT22;890;48.158;11.540;2022-11-30T08:33:59;5.60;91.10
1786;DHT22;890;48.158;11.540;2022-11-30T08:36:26;5.60;90.90
1786;DHT22;890;48.158;11.540;2022-11-30T08:38:52;5.70;90.90
1786;DHT22;890;48.158;11.540;2022-11-30T08:41:20;5.60;90.80
1786;DHT22;890;48.158;11.540;2022-11-30T08:43:47;5.50;90.80
1786;DHT22;890;48.158;11.540;2022-11-30T08:46:15;5.50;91.00
1786;DHT22;890;48.158;11.540;2022-11-30T08:48:41;5.50;91.00
1786;DHT22;890;48.158;11.540;2022-11-30T08:51:09;5.50;90.90
1786;DHT22;890;48.158;11.540;2022-11-30T08:53:36;5.50;91.00
1786;DHT22;890;48.158;11.540;2022-11-30T08:56:04;5.60;90.80
1786;DHT22;890;48.158;11.540;2022-11-30T08:58:32;5.50;90.80
1786;DHT22;890;48.158;11.540;2022-11-30T09:01:25;5.50;90.90
1786;DHT22;890;48.158;11.540;2022-11-30T09:03:53;5.40;90.70
1786;DHT22;890;48.158;11.540;2022-11-30T09:06:24;5.50;90.90
1786;DHT22;890;48.158;11.540;2022-11-30T09:08:51;5.60;90.70
1786;DHT22;890;48.158;11.540;2022-11-30T09:11:29;5.50;90.90
1786;DHT22;890;48.158;11.540;2022-11-30T09:13:57;5.40;90.50
1786;DHT22;890;48.158;11.540;2022-11-30T09:16:23;5.50;90.50
1786;DHT22;890;48.158;11.540;2022-11-30T09:18:50;5.50;90.60
1786;DHT22;890;48.158;11.540;2022-11-30T09:21:19;5.50;90.60
1786;DHT22;890;48.158;11.540;2022-11-30T09:23:46;5.50;90.50
1786;DHT22;890;48.158;11.540;2022-11-30T09:26:14;5.50;90.50
1786;DHT22;890;48.158;11.540;2022-11-30T09:28:40;5.50;90.40
1786;DHT22;890;48.158;11.540;2022-11-30T09:31:12;5.60;90.50
1786;DHT22;890;48.158;11.540;2022-11-30T09:33:38;5.60;90.40
1786;DHT22;890;48.158;11.540;2022-11-30T09:36:09;5.70;90.30
1786;DHT22;890;48.158;11.540;2022-11-30T09:38:35;5.70;90.30
1786;DHT22;890;48.158;11.540;2022-11-30T09:46:27;5.80;89.40
1786;DHT22;890;48.158;11.540;2022-11-30T09:51:48;5.80;89.30
1786;DHT22;890;48.158;11.540;2022-11-30T09:54:17;5.80;89.60
1786;DHT22;890;48.158;11.540;2022-11-30T09:56:45;6.00;89.70
1786;DHT22;890;48.158;11.540;2022-11-30T09:59:18;6.10;89.60
1786;DHT22;890;48.158;11.540;2022-11-30T10:01:45;6.10;89.20
1786;DHT22;890;48.158;11.540;2022-11-30T10:04:27;6.30;89.00
1786;DHT22;890;48.158;11.540;2022-11-30T10:09:41;6.30;88.40
1786;DHT22;890;48.158;11.540;2022-11-30T10:12:16;6.20;88.00
1786;DHT22;890;48.158;11.540;2022-11-30T10:15:05;6.20;88.10
1786;DHT22;890;48.158;11.540;2022-11-30T10:17:34;6.20;87.40
1786;DHT22;890;48.158;11.540;2022-11-30T10:20:41;6.30;87.70
1786;DHT22;890;48.158;11.540;2022-11-30T10:23:36;6.10;86.80
1786;DHT22;890;48.158;11.540;2022-11-30T10:26:11;6.10;87.20
1786;DHT22;890;48.158;11.540;2022-11-30T10:28:46;6.20;87.20
1786;DHT22;890;48.158;11.540;2022-11-30T10:31:14;6.20;86.70
1786;DHT22;890;48.158;11.540;2022-11-30T10:33:47;6.20;86.80
1786;DHT22;890;48.158;11.540;2022-11-30T10:36:38;6.20;86.50
1786;DHT22;890;48.158;11.540;2022-11-30T10:39:23;6.20;86.00
1786;DHT22;890;48.158;11.540;2022-11-30T10:41:55;6.30;86.00
1786;DHT22;890;48.158;11.540;2022-11-30T10:44:27;6.30;85.40
1786;DHT22;890;48.158;11.540;2022-11-30T10:46:58;6.30;85.30
1786;DHT22;890;48.158;11.540;2022-11-30T10:49:27;6.30;85.50
1786;DHT22;890;48.158;11.540;2022-11-30T10:51:58;6.40;85.30
1786;DHT22;890;48.158;11.540;2022-11-30T10:54:25;6.30;84.80
1786;DHT22;890;48.158;11.540;2022-11-30T10:56:51;6.40;85.00
1786;DHT22;890;48.158;11.540;2022-11-30T10:59:23;6.50;85.10
1786;DHT22;890;48.158;11.540;2022-11-30T11:01:49;6.50;85.30
1786;DHT22;890;48.158;11.540;2022-11-30T11:04:22;6.50;84.30
1786;DHT22;890;48.158;11.540;2022-11-30T11:06:54;6.60;83.70
1786;DHT22;890;48.158;11.540;2022-11-30T11:11:54;6.80;83.10
1786;DHT22;890;48.158;11.540;2022-11-30T11:14:22;6.80;83.10
1786;DHT22;890;48.158;11.540;2022-11-30T11:19:37;6.80;82.00
1786;DHT22;890;48.158;11.540;2022-11-30T11:22:15;6.90;81.70
1786;DHT22;890;48.158;11.540;2022-11-30T11:24:42;6.70;81.90
1786;DHT22;890;48.158;11.540;2022-11-30T11:30:14;6.60;81.00
1786;DHT22;890;48.158;11.540;2022-11-30T11:32:56;6.50;80.70
1786;DHT22;890;48.158;11.540;2022-11-30T11:37:59;6.50;81.00
1786;DHT22;890;48.158;11.540;2022-11-30T11:40:25;6.60;80.90
1786;DHT22;890;48.158;11.540;2022-11-30T11:42:52;6.70;80.50
1786;DHT22;890;48.158;11.540;2022-11-30T11:45:25;6.70;80.00
1786;DHT22;890;48.158;11.540;2022-11-30T11:48:03;6.70;79.90
1786;DHT22;890;48.158;11.540;2022-11-30T11:50:31;6.70;79.50
1786;DHT22;890;48.158;11.540;2022-11-30T11:55:41;6.60;79.00
1786;DHT22;890;48.158;11.540;2022-11-30T11:58:13;6.70;79.70
1786;DHT22;890;48.158;11.540;2022-11-30T12:00:41;6.60;80.10
1786;DHT22;890;48.158;11.540;2022-11-30T12:05:59;6.50;79.80
1786;DHT22;890;48.158;11.540;2022-11-30T12:13:36;6.50;80.40
1786;DHT22;890;48.158;11.540;2022-11-30T12:18:59;6.50;80.20
1786;DHT22;890;48.158;11.540;2022-11-30T12:24:55;6.30;79.50
1786;DHT22;890;48.158;11.540;2022-11-30T12:27:33;6.30;80.30
1786;DHT22;890;48.158;11.540;2022-11-30T12:32:36;6.50;80.20
1786;DHT22;890;48.158;11.540;2022-11-30T12:38:30;6.50;79.10
1786;DHT22;890;48.158;11.540;2022-11-30T12:46:29;6.50;80.00
1786;DHT22;890;48.158;11.540;2022-11-30T12:51:41;6.50;80.10
1786;DHT22;890;48.158;11.540;2022-11-30T12:57:05;6.40;79.80
1786;DHT22;890;48.158;11.540;2022-11-30T12:59:46;6.30;80.10
1786;DHT22;890;48.158;11.540;2022-11-30T13:05:10;6.30;80.30
1786;DHT22;890;48.158;11.540;2022-11-30T13:07:42;6.40;80.30
1786;DHT22;890;48.158;11.540;2022-11-30T13:10:29;6.40;80.40
1786;DHT22;890;48.158;11.540;2022-11-30T13:12:59;6.30;79.90
1786;DHT22;890;48.158;11.540;2022-11-30T13:15:31;5.50;79.40
1786;DHT22;890;48.158;11.540;2022-11-30T13:17:57;6.30;80.30
1786;DHT22;890;48.158;11.540;2022-11-30T13:23:19;6.40;80.50
1786;DHT22;890;48.158;11.540;2022-11-30T13:26:01;6.40;80.60
1786;DHT22;890;48.158;11.540;2022-11-30T13:31:32;6.50;81.10
1786;DHT22;890;48.158;11.540;2022-11-30T13:34:00;6.60;80.30
1786;DHT22;890;48.158;11.540;2022-11-30T13:36:38;6.60;79.80
1786;DHT22;890;48.158;11.540;2022-11-30T13:41:45;6.60;79.40
1786;DHT22;890;48.158;11.540;2022-11-30T13:44:23;6.50;79.20
1786;DHT22;890;48.158;11.540;2022-11-30T13:46:50;6.50;79.00
1786;DHT22;890;48.158;11.540;2022-11-30T13:49:20;6.60;79.40
1786;DHT22;890;48.158;11.540;2022-11-30T13:51:47;6.70;79.20
1786;DHT22;890;48.158;11.540;2022-11-30T13:54:36;6.70;78.80
1786;DHT22;890;48.158;11.540;2022-11-30T13:59:51;6.70;78.60
1786;DHT22;890;48.158;11.540;2022-11-30T14:13:04;6.30;79.20
1786;DHT22;890;48.158;11.540;2022-11-30T14:20:47;6.10;79.80
1786;DHT22;890;48.158;11.540;2022-11-30T14:23:20;6.20;80.10
1786;DHT22;890;48.158;11.540;2022-11-30T14:25:49;6.10;80.30
1786;DHT22;890;48.158;11.540;2022-11-30T14:28:18;6.00;80.50
1786;DHT22;890;48.158;11.540;2022-11-30T14:30:45;6.00;80.60
1786;DHT22;890;48.158;11.540;2022-11-30T14:33:17;6.00;80.80
1786;DHT22;890;48.158;11.540;2022-11-30T14:35:46;5.90;80.90
1786;DHT22;890;48.158;11.540;2022-11-30T14:38:18;5.90;81.10
1786;DHT22;890;48.158;11.540;2022-11-30T14:40:51;5.90;81.30
1786;DHT22;890;48.158;11.540;2022-11-30T14:43:17;5.90;81.50
1786;DHT22;890;48.158;11.540;2022-11-30T14:45:56;5.90;81.70
1786;DHT22;890;48.158;11.540;2022-11-30T14:48:22;5.80;82.20
1786;DHT22;890;48.158;11.540;2022-11-30T14:50:49;5.80;82.10
1786;DHT22;890;48.158;11.540;2022-11-30T14:58:51;5.40;82.90
1786;DHT22;890;48.158;11.540;2022-11-30T15:01:23;5.50;83.00
1786;DHT22;890;48.158;11.540;2022-11-30T15:03:51;5.40;83.10
1786;DHT22;890;48.158;11.540;2022-11-30T15:06:19;5.40;83.40
1786;DHT22;890;48.158;11.540;2022-11-30T15:08:50;5.40;83.80
1786;DHT22;890;48.158;11.540;2022-11-30T15:11:16;5.40;83.80
1786;DHT22;890;48.158;11.540;2022-11-30T15:13:51;5.40;84.00
1786;DHT22;890;48.158;11.540;2022-11-30T15:18:47;5.30;84.30
1786;DHT22;890;48.158;11.540;2022-11-30T15:21:25;5.30;84.20
1786;DHT22;890;48.158;11.540;2022-11-30T15:23:53;5.20;84.10
1786;DHT22;890;48.158;11.540;2022-11-30T15:29:19;5.30;84.30
1786;DHT22;890;48.158;11.540;2022-11-30T15:31:49;5.20;84.30
1786;DHT22;890;48.158;11.540;2022-11-30T15:34:42;5.20;84.30
1786;DHT22;890;48.158;11.540;2022-11-30T15:37:09;5.10;84.50
1786;DHT22;890;48.158;11.540;2022-11-30T15:39:35;5.30;84.70
1786;DHT22;890;48.158;11.540;2022-11-30T15:42:03;5.20;84.80
1786;DHT22;890;48.158;11.540;2022-11-30T15:47:01;5.30;84.90
1786;DHT22;890;48.158;11.540;2022-11-30T15:49:28;5.30;84.90
1786;DHT22;890;48.158;11.540;2022-11-30T15:52:01;5.30;84.90
1786;DHT22;890;48.158;11.540;2022-11-30T15:54:55;5.30;84.90
1786;DHT22;890;48.158;11.540;2022-11-30T15:57:23;5.20;84.90
1786;DHT22;890;48.158;11.540;2022-11-30T16:00:21;5.30;85.00
1786;DHT22;890;48.158;11.540;2022-11-30T16:02:47;5.30;84.70
1786;DHT22;890;48.158;11.540;2022-11-30T16:07:47;5.40;84.50
1786;DHT22;890;48.158;11.540;2022-11-30T16:10:19;5.30;84.30
1786;DHT22;890;48.158;11.540;2022-11-30T16:12:48;5.30;84.40
1786;DHT22;890;48.158;11.540;2022-11-30T16:15:20;5.20;84.30
1786;DHT22;890;48.158;11.540;2022-11-30T16:17:47;5.20;84.50
1786;DHT22;890;48.158;11.540;2022-11-30T16:20:14;5.30;84.40
1786;DHT22;890;48.158;11.540;2022-11-30T16:22:45;5.60;84.60
1786;DHT22;890;48.158;11.540;2022-11-30T16:25:19;5.00;84.10
1786;DHT22;890;48.158;11.540;2022-11-30T16:27:45;4.90;83.90
1786;DHT22;890;48.158;11.540;2022-11-30T16:30:22;5.00;84.00
1786;DHT22;890;48.158;11.540;2022-11-30T16:32:48;4.90;83.80
1786;DHT22;890;48.158;11.540;2022-11-30T16:35:21;4.90;83.70
1786;DHT22;890;48.158;11.540;2022-11-30T16:37:48;4.80;83.60
1786;DHT22;890;48.158;11.540;2022-11-30T16:40:14;4.80;83.50
1786;DHT22;890;48.158;11.540;2022-11-30T16:42:40;4.90;83.80
1786;DHT22;890;48.158;11.540;2022-11-30T16:45:17;4.80;83.80
1786;DHT22;890;48.158;11.540;2022-11-30T16:47:43;4.70;84.00
1786;DHT22;890;48.158;11.540;2022-11-30T16:50:10;4.70;84.80
1786;DHT22;890;48.158;11.540;2022-11-30T16:52:36;4.70;84.20
1786;DHT22;890;48.158;11.540;2022-11-30T16:55:02;4.70;84.60
1786;DHT22;890;48.158;11.540;2022-11-30T16:57:28;4.80;84.70
1786;DHT22;890;48.158;11.540;2022-11-30T16:59:53;4.80;84.70
1786;DHT22;890;48.158;11.540;2022-11-30T17:02:20;4.80;84.50
1786;DHT22;890;48.158;11.540;2022-11-30T17:04:46;4.80;84.60
1786;DHT22;890;48.158;11.540;2022-11-30T17:07:12;4.80;84.60
1786;DHT22;890;48.158;11.540;2022-11-30T17:09:37;4.80;84.60
1786;DHT22;890;48.158;11.540;2022-11-30T17:12:03;4.70;84.50
1786;DHT22;890;48.158;11.540;2022-11-30T17:14:29;4.80;84.50
1786;DHT22;890;48.158;11.540;2022-11-30T17:16:54;4.80;84.20
1786;DHT22;890;48.158;11.540;2022-11-30T17:19:20;4.90;84.40
1786;DHT22;890;48.158;11.540;2022-11-30T17:21:46;4.90;84.30
1786;DHT22;890;48.158;11.540;2022-11-30T17:24:12;4.70;84.10
1786;DHT22;890;48.158;11.540;2022-11-30T17:26:39;4.70;84.20
1786;DHT22;890;48.158;11.540;2022-11-30T17:29:04;4.70;84.10
1786;DHT22;890;48.158;11.540;2022-11-30T17:31:30;4.70;84.10
1786;DHT22;890;48.158;11.540;2022-11-30T17:33:56;4.60;84.00
1786;DHT22;890;48.158;11.540;2022-11-30T17:36:22;4.50;84.10
1786;DHT22;890;48.158;11.540;2022-11-30T17:38:47;4.50;84.10
1786;DHT22;890;48.158;11.540;2022-11-30T17:41:16;4.50;84.20
1786;DHT22;890;48.158;11.540;2022-11-30T17:43:42;4.50;84.10
1786;DHT22;890;48.158;11.540;2022-11-30T17:46:13;4.60;83.80
1786;DHT22;890;48.158;11.540;2022-11-30T17:48:40;4.50;83.50
1786;DHT22;890;48.158;11.540;2022-11-30T17:51:06;4.50;83.60
1786;DHT22;890;48.158;11.540;2022-11-30T17:53:31;4.50;83.60
1786;DHT22;890;48.158;11.540;2022-11-30T17:56:05;4.50;83.80
1786;DHT22;890;48.158;11.540;2022-11-30T17:58:31;4.50;83.60
1786;DHT22;890;48.158;11.540;2022-11-30T18:00:57;4.60;83.60
1786;DHT22;890;48.158;11.540;2022-11-30T18:03:23;4.60;83.50
1786;DHT22;890;48.158;11.540;2022-11-30T18:05:49;4.70;83.60
1786;DHT22;890;48.158;11.540;2022-11-30T18:08:15;4.70;83.60
1786;DHT22;890;48.158;11.540;2022-11-30T18:10:41;4.70;83.60
1786;DHT22;890;48.158;11.540;2022-11-30T18:13:10;4.70;83.70
1786;DHT22;890;48.158;11.540;2022-11-30T18:15:35;4.90;83.70
1786;DHT22;890;48.158;11.540;2022-11-30T18:18:01;4.80;83.50
1786;DHT22;890;48.158;11.540;2022-11-30T18:20:28;4.80;83.30
1786;DHT22;890;48.158;11.540;2022-11-30T18:22:53;4.80;83.20
1786;DHT22;890;48.158;11.540;2022-11-30T18:25:19;4.80;83.10
1786;DHT22;890;48.158;11.540;2022-11-30T18:27:44;4.80;83.10
1786;DHT22;890;48.158;11.540;2022-11-30T18:30:11;4.80;83.30